Time;durP1;ratioP1;P1;durP2;ratioP2;P2;SDS_P1;SDS_P2;PMS_P1;PMS_P2;Temp;Humidity;BMP_temperature;BMP_pressure;BME280_temperature;BME280_humidity;BME280_pressure;Samples;Min_cycle;Max_cycle;Signal;HPM_P1;HPM_P2
2023/04/15 00:01:24;;;;;;;2.45;0.73;;;9.30;99.90;;;;;;4993215;28;20557;-72
2023/04/15 00:03:51;;;;;;;2.10;0.90;;;9.50;99.90;;;;;;4992646;28;20030;-72
2023/04/15 00:06:18;;;;;;;0.63;0.63;;;;;;;;;;4992861;28;20508;-72
2023/04/15 00:08:44;;;;;;;1.13;1.02;;;9.40;99.90;;;;;;4993179;28;20033;-71
2023/04/15 00:11:10;;;;;;;0.65;0.65;;;9.90;99.90;;;;;;4988964;28;20030;-72
2023/04/15 00:13:35;;;;;;;0.95;0.82;;;9.50;99.90;;;;;;4992473;28;20073;-72
2023/04/15 00:16:01;;;;;;;4.03;0.70;;;;;;;;;;4992732;28;20034;-71
2023/04/15 00:18:28;;;;;;;1.35;1.10;;;9.90;99.90;;;;;;4992375;28;20088;-71
2023/04/15 00:20:54;;;;;;;1.00;0.80;;;9.30;99.90;;;;;;4992632;28;20018;-72
2023/04/15 00:23:20;;;;;;;0.50;0.50;;;;;;;;;;4992507;28;20337;-72
2023/04/15 00:25:46;;;;;;;1.10;1.10;;;;;;;;;;4992244;28;20054;-72
2023/04/15 00:28:12;;;;;;;0.98;0.82;;;;;;;;;;4992367;28;20030;-72
2023/04/15 00:30:38;;;;;;;1.13;0.85;;;;;;;;;;4992328;28;20030;-71
2023/04/15 00:33:04;;;;;;;0.60;0.60;;;9.30;99.90;;;;;;4992030;28;20030;-72
2023/04/15 00:35:33;;;;;;;13.98;1.45;;;;;;;;;;4992006;28;20027;-72
2023/04/15 00:37:59;;;;;;;1.75;0.77;;;;;;;;;;4992384;28;20400;-71
2023/04/15 00:40:25;;;;;;;1.48;0.80;;;9.60;99.90;;;;;;4991949;28;20027;-72
2023/04/15 00:42:51;;;;;;;1.05;0.77;;;9.40;99.90;;;;;;4992318;28;20530;-72
2023/04/15 00:45:17;;;;;;;1.20;0.77;;;9.40;99.90;;;;;;4992083;28;20537;-72
2023/04/15 00:47:43;;;;;;;0.70;0.70;;;9.40;99.90;;;;;;4992008;28;20093;-72
2023/04/15 00:50:10;;;;;;;0.45;0.45;;;9.60;99.90;;;;;;4992329;28;20071;-72
2023/04/15 00:52:36;;;;;;;0.60;0.60;;;9.50;99.90;;;;;;4991257;28;20042;-71
2023/04/15 00:55:03;;;;;;;0.50;0.50;;;9.30;99.90;;;;;;4991631;28;20411;-72
2023/04/15 00:57:29;;;;;;;2.10;0.70;;;;;;;;;;4991511;28;20042;-72
2023/04/15 00:59:55;;;;;;;1.08;0.63;;;9.50;99.90;;;;;;4989588;28;20030;-72
2023/04/15 01:02:22;;;;;;;0.60;0.60;;;9.40;99.90;;;;;;4986244;28;20407;-72
2023/04/15 01:04:48;;;;;;;0.50;0.50;;;9.30;99.90;;;;;;4986965;28;20075;-72
2023/04/15 01:07:14;;;;;;;0.50;0.50;;;8.90;99.90;;;;;;4989076;28;20479;-71
2023/04/15 01:09:41;;;;;;;0.85;0.63;;;9.10;99.90;;;;;;4989857;28;20033;-71
2023/04/15 01:12:09;;;;;;;0.50;0.50;;;9.40;99.90;;;;;;4989741;28;20469;-72
2023/04/15 01:14:35;;;;;;;0.32;0.30;;;9.30;99.90;;;;;;4989914;28;20399;-72
2023/04/15 01:17:01;;;;;;;0.63;0.55;;;;;;;;;;4989768;28;20019;-72
2023/04/15 01:19:27;;;;;;;0.68;0.50;;;;;;;;;;4991625;28;20034;-72
2023/04/15 01:21:53;;;;;;;1.50;0.50;;;;;;;;;;4989743;28;20050;-71
2023/04/15 01:24:20;;;;;;;0.82;0.63;;;;;;;;;;4987946;28;20708;-72
2023/04/15 01:26:47;;;;;;;0.77;0.50;;;;;;;;;;4989192;28;20033;-73
2023/04/15 01:29:14;;;;;;;1.25;0.82;;;;;;;;;;4987391;28;20030;-72
2023/04/15 01:31:39;;;;;;;0.53;0.50;;;9.50;99.90;;;;;;4991424;28;20050;-72
2023/04/15 01:34:05;;;;;;;0.73;0.43;;;9.10;99.90;;;;;;4988210;28;21158;-72
2023/04/15 01:36:32;;;;;;;2.08;0.50;;;9.20;99.90;;;;;;4989878;28;20031;-72
2023/04/15 01:38:57;;;;;;;1.00;0.70;;;9.40;99.90;;;;;;4989988;28;20491;-72
2023/04/15 01:41:27;;;;;;;0.40;0.40;;;9.10;99.90;;;;;;4991410;28;20026;-72
2023/04/15 01:43:53;;;;;;;0.52;0.50;;;9.40;99.90;;;;;;4991260;28;20058;-72
2023/04/15 01:46:19;;;;;;;0.40;0.40;;;9.90;99.90;;;;;;4991005;28;20041;-72
2023/04/15 01:48:45;;;;;;;0.30;0.30;;;9.30;99.90;;;;;;4991149;28;20134;-72
2023/04/15 01:51:11;;;;;;;2.17;0.93;;;;;;;;;;4990932;28;20040;-72
2023/04/15 01:53:37;;;;;;;1.65;0.82;;;;;;;;;;4990686;28;20022;-72
2023/04/15 01:56:03;;;;;;;0.60;0.45;;;9.80;99.90;;;;;;4990889;28;20026;-72
2023/04/15 01:58:30;;;;;;;0.40;0.40;;;9.30;99.90;;;;;;4989283;28;20440;-72
2023/04/15 02:00:55;;;;;;;0.63;0.63;;;9.40;99.90;;;;;;4990727;28;20399;-72
2023/04/15 02:03:22;;;;;;;0.55;0.55;;;;;;;;;;4990540;28;20022;-71
2023/04/15 02:05:48;;;;;;;0.65;0.47;;;;;;;;;;4989985;28;20038;-72
2023/04/15 02:08:14;;;;;;;0.40;0.40;;;;;;;;;;4988928;28;20431;-71
2023/04/15 02:10:40;;;;;;;0.70;0.68;;;;;;;;;;4990662;28;20089;-72
2023/04/15 02:13:06;;;;;;;0.90;0.70;;;;;;;;;;4990363;28;20555;-71
2023/04/15 02:15:33;;;;;;;1.48;0.82;;;;;;;;;;4990314;28;20034;-72
2023/04/15 02:17:59;;;;;;;0.50;0.50;;;;;;;;;;4990548;28;20020;-72
2023/04/15 02:20:25;;;;;;;0.80;0.60;;;9.30;99.90;;;;;;4990219;28;20106;-72
2023/04/15 02:22:51;;;;;;;0.90;0.60;;;;;;;;;;4989974;28;20034;-72
2023/04/15 02:25:17;;;;;;;0.60;0.52;;;9.60;99.90;;;;;;4989839;28;20034;-72
2023/04/15 02:27:43;;;;;;;0.40;0.40;;;;;;;;;;4988313;28;20491;-72
2023/04/15 02:30:09;;;;;;;0.82;0.50;;;9.70;99.90;;;;;;4988910;28;20490;-72
2023/04/15 02:32:36;;;;;;;0.40;0.40;;;;;;;;;;4990414;28;20029;-71
2023/04/15 02:35:07;;;;;;;0.60;0.60;;;9.50;99.90;;;;;;4989949;28;20062;-71
2023/04/15 02:37:39;;;;;;;0.47;0.47;;;9.50;99.90;;;;;;4989941;28;20104;-72
2023/04/15 02:40:07;;;;;;;0.98;0.60;;;9.70;99.90;;;;;;4989987;28;20022;-72
2023/04/15 02:42:32;;;;;;;2.20;0.75;;;9.60;99.90;;;;;;4990201;28;20030;-71
2023/04/15 02:44:58;;;;;;;0.45;0.45;;;;;;;;;;4989824;28;20041;-72
2023/04/15 02:47:24;;;;;;;0.75;0.70;;;;;;;;;;4989184;28;20038;-73
2023/04/15 02:49:50;;;;;;;0.68;0.47;;;;;;;;;;4986207;28;20035;-72
2023/04/15 02:52:16;;;;;;;0.73;0.60;;;;;;;;;;4987182;28;20038;-72
2023/04/15 02:54:42;;;;;;;0.60;0.60;;;;;;;;;;4986049;28;20181;-72
2023/04/15 02:57:10;;;;;;;0.63;0.63;;;;;;;;;;4989194;28;20436;-73
2023/04/15 02:59:35;;;;;;;;;;;9.20;99.90;;;;;;4989609;28;20023;-72
2023/04/15 03:02:02;;;;;;;0.80;0.80;;;;;;;;;;4989546;28;19920;-71
2023/04/15 03:04:29;;;;;;;0.70;0.57;;;9.70;99.90;;;;;;4988915;28;20026;-72
2023/04/15 03:06:55;;;;;;;0.75;0.60;;;9.20;99.90;;;;;;4987498;28;20040;-71
2023/04/15 03:09:21;;;;;;;0.40;0.40;;;;;;;;;;4986778;28;20039;-72
2023/04/15 03:11:47;;;;;;;0.50;0.50;;;9.30;99.90;;;;;;4969591;28;20580;-71
2023/04/15 03:14:12;;;;;;;1.45;1.08;;;9.30;99.90;;;;;;4970189;28;20058;-71
2023/04/15 03:16:38;;;;;;;0.85;0.85;;;;;;;;;;4970378;28;20029;-72
2023/04/15 03:19:04;;;;;;;3.67;1.05;;;;;;;;;;4985926;28;20050;-72
2023/04/15 03:21:31;;;;;;;1.08;0.90;;;;;;;;;;4989532;28;20034;-72
2023/04/15 03:23:57;;;;;;;2.88;1.90;;;;;;;;;;4989644;28;20053;-72
2023/04/15 03:26:27;;;;;;;1.20;1.10;;;9.50;99.90;;;;;;4990735;28;20704;-72
2023/04/15 03:28:53;;;;;;;2.50;1.38;;;8.90;99.90;;;;;;4993422;28;20026;-72
2023/04/15 03:31:19;;;;;;;0.93;0.77;;;;;;;;;;4993656;28;20141;-72
2023/04/15 03:33:45;;;;;;;0.85;0.77;;;9.00;99.90;;;;;;4991489;28;20492;-71
2023/04/15 03:36:11;;;;;;;0.50;0.50;;;;;;;;;;4993248;28;20049;-72
2023/04/15 03:38:37;;;;;;;2.03;0.55;;;9.10;99.90;;;;;;4993325;28;20065;-72
2023/04/15 03:41:02;;;;;;;0.57;0.50;;;9.10;99.90;;;;;;4993168;28;20540;-72
2023/04/15 03:43:28;;;;;;;0.50;0.50;;;;;;;;;;4993342;28;20030;-72
2023/04/15 03:45:54;;;;;;;0.50;0.50;;;9.20;99.90;;;;;;4993571;28;20560;-72
2023/04/15 03:48:20;;;;;;;0.40;0.40;;;;;;;;;;4992836;28;20109;-72
2023/04/15 03:50:46;;;;;;;0.45;0.45;;;9.40;99.90;;;;;;4993010;28;20030;-71
2023/04/15 03:53:12;;;;;;;0.75;0.75;;;;;;;;;;4993500;28;20112;-72
2023/04/15 03:55:37;;;;;;;0.43;0.43;;;9.40;99.90;;;;;;4993100;28;20027;-72
2023/04/15 03:58:03;;;;;;;0.30;0.30;;;9.30;99.90;;;;;;4993194;28;20034;-72
2023/04/15 04:00:29;;;;;;;0.50;0.50;;;9.50;99.90;;;;;;4991670;28;20034;-72
2023/04/15 04:02:54;;;;;;;0.63;0.55;;;9.30;99.90;;;;;;4992771;28;20113;-72
2023/04/15 04:05:20;;;;;;;0.57;0.57;;;;;;;;;;4992497;28;20061;-72
2023/04/15 04:07:46;;;;;;;0.57;0.40;;;;;;;;;;4992700;28;20041;-71
2023/04/15 04:10:12;;;;;;;1.75;0.75;;;;;;;;;;4992650;28;20022;-72
2023/04/15 04:12:38;;;;;;;0.50;0.50;;;;;;;;;;4993143;28;20093;-72
2023/04/15 04:15:05;;;;;;;0.73;0.73;;;9.70;99.90;;;;;;4992779;28;20030;-72
2023/04/15 04:17:31;;;;;;;1.80;0.85;;;;;;;;;;4992961;28;20085;-72
2023/04/15 04:19:57;;;;;;;2.78;0.80;;;9.70;99.90;;;;;;4992825;28;20388;-72
2023/04/15 04:22:23;;;;;;;2.42;1.70;;;9.80;99.90;;;;;;4992534;28;20076;-72
2023/04/15 04:24:49;;;;;;;2.35;1.55;;;9.50;99.90;;;;;;4992965;28;20045;-72
2023/04/15 04:27:15;;;;;;;1.67;1.25;;;9.10;99.90;;;;;;4992446;28;20383;-72
2023/04/15 04:29:40;;;;;;;0.60;0.60;;;;;;;;;;4992595;28;20038;-72
2023/04/15 04:32:07;;;;;;;0.77;0.77;;;;;;;;;;4992526;28;20065;-72
2023/04/15 04:34:32;;;;;;;1.00;0.90;;;9.20;99.90;;;;;;4992178;28;20383;-72
2023/04/15 04:36:58;;;;;;;2.15;0.85;;;;;;;;;;4992115;28;20031;-71
2023/04/15 04:39:25;;;;;;;1.98;0.60;;;9.20;99.90;;;;;;4990452;28;20030;-71
2023/04/15 04:41:51;;;;;;;0.63;0.50;;;;;;;;;;4992506;28;20027;-72
2023/04/15 04:44:17;;;;;;;1.25;1.10;;;9.00;99.90;;;;;;4992756;28;20403;-72
2023/04/15 04:46:42;;;;;;;0.80;0.80;;;9.10;99.90;;;;;;4992355;28;20035;-72
2023/04/15 04:49:08;;;;;;;0.50;0.50;;;;;;;;;;4990534;28;20116;-71
2023/04/15 04:51:34;;;;;;;0.88;0.50;;;;;;;;;;4992224;28;20037;-72
2023/04/15 04:54:00;;;;;;;1.10;0.65;;;9.20;99.90;;;;;;4992127;28;20027;-73
2023/04/15 04:56:27;;;;;;;4.97;0.70;;;;;;;;;;4991832;28;20034;-72
2023/04/15 04:58:52;;;;;;;0.57;0.50;;;9.60;99.90;;;;;;4991912;28;20026;-71
2023/04/15 05:01:18;;;;;;;0.70;0.70;;;;;;;;;;4991768;28;20076;-72
2023/04/15 05:03:44;;;;;;;0.50;0.50;;;;;;;;;;4991397;28;20109;-71
2023/04/15 05:06:10;;;;;;;0.50;0.50;;;9.30;99.90;;;;;;4991642;28;20157;-72
2023/04/15 05:08:36;;;;;;;1.95;0.50;;;;;;;;;;4992096;28;20503;-72
2023/04/15 05:11:03;;;;;;;0.75;0.75;;;;;;;;;;4991745;28;20070;-71
2023/04/15 05:13:29;;;;;;;0.75;0.50;;;9.40;99.90;;;;;;4991824;28;20035;-71
2023/04/15 05:15:55;;;;;;;0.68;0.60;;;9.20;99.90;;;;;;4991530;28;20034;-73
2023/04/15 05:18:21;;;;;;;0.88;0.70;;;;;;;;;;4991614;28;20042;-72
2023/04/15 05:20:48;;;;;;;0.45;0.45;;;9.20;99.90;;;;;;4991669;28;20081;-72
2023/04/15 05:23:15;;;;;;;4.47;1.67;;;;;;;;;;4991485;28;20058;-72
2023/04/15 05:25:41;;;;;;;0.55;0.55;;;9.30;99.90;;;;;;4991117;28;20705;-71
2023/04/15 05:28:07;;;;;;;0.47;0.47;;;;;;;;;;4991611;28;20109;-72
2023/04/15 05:30:32;;;;;;;1.20;1.10;;;9.30;99.90;;;;;;4990895;28;20450;-72
2023/04/15 05:32:58;;;;;;;3.22;2.00;;;9.10;99.90;;;;;;4991518;28;20065;-73
2023/04/15 05:35:24;;;;;;;0.70;0.70;;;;;;;;;;4990996;28;20041;-71
2023/04/15 05:37:50;;;;;;;0.65;0.65;;;;;;;;;;4991391;28;20584;-72
2023/04/15 05:40:16;;;;;;;6.05;0.70;;;8.40;99.90;;;;;;4991438;28;20117;-72
2023/04/15 05:42:41;;;;;;;4.20;0.70;;;8.50;99.90;;;;;;4991210;28;20022;-71
2023/04/15 05:45:08;;;;;;;2.33;1.13;;;8.60;99.90;;;;;;4990324;28;20046;-72
2023/04/15 05:47:36;;;;;;;0.60;0.60;;;9.10;99.90;;;;;;4990927;28;20038;-71
2023/04/15 05:50:02;;;;;;;0.85;0.70;;;;;;;;;;4990731;28;20046;-71
2023/04/15 05:52:27;;;;;;;0.63;0.52;;;8.90;99.90;;;;;;4991100;28;20101;-72
2023/04/15 05:54:53;;;;;;;0.65;0.65;;;;;;;;;;4990783;28;20559;-72
2023/04/15 05:57:20;;;;;;;1.42;1.33;;;;;;;;;;4989394;28;20105;-72
2023/04/15 05:59:47;;;;;;;1.30;1.20;;;;;;;;;;4990632;28;20037;-72
2023/04/15 06:02:12;;;;;;;0.88;0.70;;;8.90;99.90;;;;;;4990769;28;20439;-72
2023/04/15 06:04:38;;;;;;;1.38;0.60;;;;;;;;;;4990245;28;20046;-72
2023/04/15 06:07:05;;;;;;;0.50;0.50;;;;;;;;;;4988979;28;20403;-73
2023/04/15 06:09:30;;;;;;;1.50;0.80;;;9.10;99.90;;;;;;4990741;28;20026;-72
2023/04/15 06:11:56;;;;;;;0.63;0.63;;;;;;;;;;4990628;28;20554;-72
2023/04/15 06:14:22;;;;;;;0.73;0.50;;;;;;;;;;4990341;28;20113;-72
2023/04/15 06:16:48;;;;;;;0.50;0.50;;;;;;;;;;4990414;28;20026;-72
2023/04/15 06:19:14;;;;;;;0.70;0.60;;;;;;;;;;4990853;28;20093;-72
2023/04/15 06:21:40;;;;;;;0.93;0.70;;;;;;;;;;4990090;28;20022;-72
2023/04/15 06:24:06;;;;;;;0.82;0.68;;;;;;;;;;4990341;28;20065;-72
2023/04/15 06:26:32;;;;;;;0.57;0.57;;;;;;;;;;4990623;28;20050;-72
2023/04/15 06:28:58;;;;;;;1.27;0.80;;;;;;;;;;4990150;28;20495;-72
2023/04/15 06:31:25;;;;;;;0.70;0.70;;;;;;;;;;4989014;28;20093;-71
2023/04/15 06:33:51;;;;;;;1.08;0.80;;;;;;;;;;4989268;28;20022;-72
2023/04/15 06:36:17;;;;;;;0.90;0.88;;;;;;;;;;4990053;28;20026;-72
2023/04/15 06:38:43;;;;;;;1.52;1.42;;;;;;;;;;4990467;28;20026;-72
2023/04/15 06:41:08;;;;;;;0.73;0.73;;;12.10;94.80;;;;;;4990188;28;20080;-71
2023/04/15 06:43:35;;;;;;;3.42;1.33;;;;;;;;;;4988527;28;20034;-72
2023/04/15 06:46:01;;;;;;;2.15;0.88;;;10.80;95.50;;;;;;4988702;28;20034;-72
2023/04/15 06:48:27;;;;;;;2.15;1.20;;;;;;;;;;4988258;28;20133;-73
2023/04/15 06:50:52;;;;;;;0.80;0.80;;;15.50;75.30;;;;;;4989563;28;20530;-72
2023/04/15 06:53:18;;;;;;;0.80;0.80;;;;;;;;;;4988163;28;20023;-72
2023/04/15 06:55:44;;;;;;;0.60;0.60;;;;;;;;;;4989618;28;20031;-72
2023/04/15 06:58:10;;;;;;;1.58;0.90;;;;;;;;;;4989079;28;20038;-72
2023/04/15 07:00:38;;;;;;;0.63;0.63;;;11.10;91.60;;;;;;4987670;28;20496;-71
2023/04/15 07:03:04;;;;;;;3.05;0.98;;;12.70;89.50;;;;;;4989241;28;20041;-72
2023/04/15 07:05:31;;;;;;;1.85;0.75;;;;;;;;;;4988318;28;20050;-72
2023/04/15 07:07:57;;;;;;;2.13;0.80;;;15.40;64.80;;;;;;4989503;28;20022;-72
2023/04/15 07:10:22;;;;;;;4.47;0.75;;;17.30;66.10;;;;;;4989136;28;20387;-72
2023/04/15 07:12:49;;;;;;;0.80;0.80;;;17.90;61.60;;;;;;4989066;28;20420;-73
2023/04/15 07:15:15;;;;;;;2.25;0.90;;;16.40;72.70;;;;;;4988926;28;20484;-73
2023/04/15 07:17:42;;;;;;;0.40;0.40;;;;;;;;;;4989168;28;20031;-72
2023/04/15 07:20:08;;;;;;;1.03;0.83;;;13.40;79.20;;;;;;4989234;28;20509;-72
2023/04/15 07:22:34;;;;;;;0.70;0.57;;;13.00;81.80;;;;;;4989207;28;20022;-72
2023/04/15 07:25:00;;;;;;;1.08;0.93;;;;;;;;;;4989104;28;20041;-72
2023/04/15 07:27:26;;;;;;;0.80;0.80;;;;;;;;;;4989368;28;20030;-72
2023/04/15 07:29:52;;;;;;;0.70;0.70;;;11.70;88.20;;;;;;4989698;28;20038;-72
2023/04/15 07:32:18;;;;;;;0.60;0.60;;;10.80;89.40;;;;;;4989852;28;20039;-72
2023/04/15 07:34:44;;;;;;;1.55;1.42;;;12.40;87.30;;;;;;4989661;28;20030;-72
2023/04/15 07:37:09;;;;;;;3.08;0.90;;;12.00;82.20;;;;;;4987935;28;20408;-71
2023/04/15 07:39:36;;;;;;;1.35;0.98;;;;;;;;;;4987937;28;20480;-73
2023/04/15 07:42:03;;;;;;;0.68;0.68;;;11.10;69.50;;;;;;4987912;28;20097;-72
2023/04/15 07:44:29;;;;;;;0.60;0.60;;;;;;;;;;4988577;28;20039;-72
2023/04/15 07:46:55;;;;;;;1.20;0.90;;;9.00;73.80;;;;;;4988172;28;20031;-72
2023/04/15 07:49:22;;;;;;;0.70;0.70;;;;;;;;;;4986113;28;20050;-72
2023/04/15 07:51:48;;;;;;;1.15;1.13;;;;;;;;;;4985871;28;20053;-72
2023/04/15 07:54:14;;;;;;;0.65;0.65;;;15.40;63.50;;;;;;4986169;28;20030;-72
2023/04/15 07:56:40;;;;;;;0.82;0.82;;;14.90;62.10;;;;;;4987037;28;20026;-72
2023/04/15 07:59:06;;;;;;;1.77;0.75;;;13.80;75.90;;;;;;4988946;28;20030;-72
2023/04/15 08:01:32;;;;;;;0.70;0.70;;;;;;;;;;4989219;28;20188;-72
2023/04/15 08:03:58;;;;;;;1.13;0.80;;;13.20;78.80;;;;;;4988870;28;20026;-72
2023/04/15 08:06:24;;;;;;;1.95;1.85;;;;;;;;;;4987396;28;20034;-73
2023/04/15 08:08:51;;;;;;;2.33;2.13;;;;;;;;;;4986838;28;20027;-73
2023/04/15 08:11:17;;;;;;;1.77;1.75;;;;;;;;;;4987880;28;20037;-74
2023/04/15 08:13:43;;;;;;;1.27;1.23;;;;;;;;;;4987887;28;20108;-73
2023/04/15 08:16:23;;;;;;;0.88;0.38;;;38.30;29.30;;;;;;4992950;28;20069;-74
2023/04/15 08:18:50;;;;;;;0.80;0.80;;;35.90;28.30;;;;;;5024555;28;20081;-74
2023/04/15 08:21:17;;;;;;;0.63;0.20;;;32.30;26.20;;;;;;4992959;28;20120;-74
2023/04/15 08:23:44;;;;;;;0.70;0.30;;;29.50;28.90;;;;;;4992548;28;20022;-73
2023/04/15 08:26:10;;;;;;;0.75;0.45;;;33.80;29.60;;;;;;4992569;28;20035;-73
2023/04/15 08:28:39;;;;;;;0.80;0.80;;;34.30;37.70;;;;;;4992786;28;20029;-73
2023/04/15 08:31:05;;;;;;;1.25;0.10;;;30.20;37.70;;;;;;4992713;28;20030;-73
2023/04/15 08:33:30;;;;;;;0.43;0.20;;;26.30;41.40;;;;;;4992550;28;20394;-73
2023/04/15 08:35:56;;;;;;;3.13;0.30;;;;;;;;;;4992727;28;20081;-73
2023/04/15 08:38:22;;;;;;;0.80;0.80;;;30.00;32.30;;;;;;4992552;28;20018;-73
2023/04/15 08:40:48;;;;;;;1.00;0.80;;;34.90;29.30;;;;;;4991989;28;20085;-74
2023/04/15 08:43:25;;;;;;;0.50;0.00;;;31.30;27.30;;;;;;4992709;28;20042;-73
2023/04/15 08:45:51;;;;;;;0.10;0.10;;;26.30;30.40;;;;;;4992462;28;20042;-73
2023/04/15 08:48:18;;;;;;;0.40;0.13;;;23.40;45.50;;;;;;4992382;28;20419;-72
2023/04/15 08:50:45;;;;;;;1.10;0.30;;;20.80;45.80;;;;;;4992306;28;20129;-73
2023/04/15 08:53:10;;;;;;;;;;;20.40;36.90;;;;;;4992684;28;20026;-72
2023/04/15 08:55:45;;;;;;;0.40;0.40;;;17.30;42.50;;;;;;4992134;28;20303;-72
2023/04/15 08:58:15;;;;;;;0.30;0.30;;;16.30;44.60;;;;;;4992428;28;20027;-73
2023/04/15 09:00:41;;;;;;;0.30;0.30;;;;;;;;;;4991911;28;20448;-72
2023/04/15 09:03:08;;;;;;;1.13;0.90;;;14.80;63.10;;;;;;4991486;28;20026;-72
2023/04/15 09:05:34;;;;;;;1.80;1.20;;;14.50;50.50;;;;;;4990942;28;20042;-72
2023/04/15 09:08:01;;;;;;;0.70;0.60;;;13.90;51.10;;;;;;4989763;28;20027;-73
2023/04/15 09:10:27;;;;;;;0.73;0.67;;;13.20;57.70;;;;;;4987863;28;20030;-72
2023/04/15 09:12:53;;;;;;;0.60;0.60;;;;;;;;;;4991623;28;20073;-73
2023/04/15 09:15:19;;;;;;;1.80;1.33;;;12.50;62.00;;;;;;4991543;28;20026;-72
2023/04/15 09:17:46;;;;;;;0.80;0.80;;;12.60;73.30;;;;;;4991311;28;20542;-72
2023/04/15 09:20:13;;;;;;;2.58;0.88;;;;;;;;;;4991496;28;20022;-73
2023/04/15 09:22:43;;;;;;;0.90;0.90;;;12.80;54.90;;;;;;4988184;28;20153;-73
2023/04/15 09:25:29;;;;;;;0.80;0.80;;;12.80;55.10;;;;;;4984505;28;20515;-73
2023/04/15 09:28:00;;;;;;;1.00;0.60;;;12.80;71.20;;;;;;4988787;28;20037;-72
2023/04/15 09:30:29;;;;;;;0.70;0.70;;;12.20;56.40;;;;;;4988970;28;20038;-71
2023/04/15 09:32:58;;;;;;;1.70;1.30;;;11.70;59.30;;;;;;4991234;28;20109;-71
2023/04/15 09:35:26;;;;;;;1.63;1.10;;;;;;;;;;4988666;28;20053;-71
2023/04/15 09:37:52;;;;;;;;;;;11.10;65.90;;;;;;4986189;28;20034;-73
2023/04/15 09:40:50;;;;;;;0.80;0.80;;;10.50;69.00;;;;;;4988899;28;20441;-75
2023/04/15 09:43:16;;;;;;;1.33;1.25;;;10.00;87.50;;;;;;4964781;28;20053;-70
2023/04/15 09:45:53;;;;;;;1.30;1.05;;;9.90;86.30;;;;;;4965430;28;20034;-69
2023/04/15 09:48:25;;;;;;;1.08;0.93;;;10.40;82.60;;;;;;4967369;28;20054;-73
2023/04/15 09:50:56;;;;;;;1.45;1.30;;;;;;;;;;4966066;28;20035;-76
2023/04/15 09:53:24;;;;;;;0.75;0.75;;;9.90;76.80;;;;;;4966928;28;20182;-72
2023/04/15 09:56:02;;;;;;;0.68;0.68;;;10.10;76.50;;;;;;4966744;28;20153;-72
2023/04/15 09:58:30;;;;;;;2.67;0.90;;;10.20;74.20;;;;;;4966191;28;20054;-74
2023/04/15 10:00:57;;;;;;;1.08;0.90;;;10.40;76.60;;;;;;4966983;28;20031;-75
2023/04/15 10:03:33;;;;;;;0.70;0.70;;;10.40;74.20;;;;;;4966890;28;20488;-73
2023/04/15 10:05:59;;;;;;;1.23;1.13;;;10.40;91.30;;;;;;4965919;28;20042;-73
2023/04/15 10:08:31;;;;;;;1.92;1.05;;;9.30;84.50;;;;;;4967478;28;20031;-71
2023/04/15 10:11:01;;;;;;;1.50;1.15;;;9.40;87.40;;;;;;4967471;28;20034;-75
2023/04/15 10:13:35;;;;;;;0.85;0.85;;;9.50;86.20;;;;;;4967353;28;20039;-79
2023/04/15 10:16:10;;;;;;;2.00;0.88;;;9.10;90.30;;;;;;4966644;28;20075;-75
2023/04/15 10:18:41;;;;;;;1.73;1.17;;;9.30;89.40;;;;;;4975179;28;20050;-71
2023/04/15 10:21:08;;;;;;;0.90;0.90;;;9.90;92.90;;;;;;4984746;28;20027;-70
2023/04/15 10:23:34;;;;;;;1.67;1.00;;;;;;;;;;4988891;28;20037;-74
2023/04/15 10:26:01;;;;;;;1.33;1.23;;;10.50;83.90;;;;;;4989033;28;20574;-71
2023/04/15 10:28:27;;;;;;;2.03;1.05;;;11.00;93.10;;;;;;4987751;28;20034;-69
2023/04/15 10:30:53;;;;;;;1.20;1.10;;;;;;;;;;4987081;28;20096;-82
2023/04/15 10:33:24;;;;;;;3.03;1.30;;;14.40;78.90;;;;;;4988766;28;20061;-70
2023/04/15 10:35:51;;;;;;;0.80;0.80;;;14.50;60.00;;;;;;4984296;28;20933;-70
2023/04/15 10:38:31;;;;;;;1.02;0.70;;;13.90;62.10;;;;;;4986511;28;20495;-69
2023/04/15 10:41:34;;;;;;;0.77;0.75;;;14.20;60.50;;;;;;4986159;28;20145;-69
2023/04/15 10:44:02;;;;;;;1.42;1.33;;;14.40;61.90;;;;;;5002879;28;20049;-70
2023/04/15 10:46:41;;;;;;;;;;;14.80;60.00;;;;;;5004931;28;20597;-71
2023/04/15 10:49:13;;;;;;;1.02;1.02;;;16.20;62.60;;;;;;5003689;28;19925;-69
2023/04/15 10:51:44;;;;;;;1.20;1.20;;;18.60;65.80;;;;;;5002297;28;20117;-70
2023/04/15 10:54:31;;;;;;;0.70;0.70;;;19.40;48.50;;;;;;5005354;28;20038;-70
2023/04/15 10:57:02;;;;;;;1.05;0.90;;;18.40;49.00;;;;;;4986790;28;20030;-70
2023/04/15 10:59:30;;;;;;;0.70;0.70;;;17.00;64.80;;;;;;4986827;28;20046;-70
2023/04/15 11:02:00;;;;;;;0.77;0.68;;;15.80;53.70;;;;;;4998971;28;20490;-70
2023/04/15 11:04:59;;;;;;;0.60;0.60;;;14.30;56.70;;;;;;5002721;28;20143;-70
2023/04/15 11:07:43;;;;;;;0.60;0.60;;;12.50;77.90;;;;;;5005562;28;20041;-69
2023/04/15 11:10:30;;;;;;;0.70;0.60;;;12.50;64.20;;;;;;5006090;28;20057;-70
2023/04/15 11:13:00;;;;;;;2.58;1.10;;;12.20;71.30;;;;;;5005914;28;20076;-70
2023/04/15 11:15:27;;;;;;;0.70;0.70;;;;;;;;;;5006008;28;20224;-70
2023/04/15 11:17:53;;;;;;;2.17;0.63;;;;;;;;;;4997304;28;20608;-70
2023/04/15 11:20:19;;;;;;;2.00;1.00;;;;;;;;;;4988194;28;20050;-69
2023/04/15 11:22:52;;;;;;;1.85;0.95;;;12.40;69.00;;;;;;4988542;28;20479;-70
2023/04/15 11:25:28;;;;;;;0.70;0.70;;;12.10;72.80;;;;;;4988311;28;20069;-70
2023/04/15 11:27:54;;;;;;;1.40;1.30;;;12.70;85.10;;;;;;4988194;28;20026;-69
2023/04/15 11:30:29;;;;;;;0.70;0.70;;;13.00;66.40;;;;;;4988645;28;20033;-69
2023/04/15 11:32:58;;;;;;;1.95;0.75;;;12.70;80.50;;;;;;4986631;28;20037;-70
2023/04/15 11:35:24;;;;;;;1.00;0.90;;;12.20;86.50;;;;;;4987954;28;20026;-69
2023/04/15 11:37:50;;;;;;;1.42;1.33;;;11.80;82.10;;;;;;4987936;28;20368;-68
2023/04/15 11:40:21;;;;;;;0.70;0.70;;;11.60;75.10;;;;;;4988280;28;20030;-69
2023/04/15 11:42:46;;;;;;;0.70;0.70;;;;;;;;;;4986446;28;20042;-70
2023/04/15 11:45:14;;;;;;;0.82;0.82;;;11.40;75.90;;;;;;4988044;28;20073;-70
2023/04/15 11:47:41;;;;;;;1.05;0.80;;;11.90;74.00;;;;;;4989798;28;20046;-70
2023/04/15 11:50:17;;;;;;;1.30;1.20;;;12.20;72.00;;;;;;4992493;28;20407;-69
2023/04/15 11:52:57;;;;;;;0.88;0.70;;;11.80;70.80;;;;;;4987141;28;20034;-70
2023/04/15 11:55:23;;;;;;;0.60;0.60;;;11.00;89.10;;;;;;4990353;28;20526;-69
2023/04/15 11:58:07;;;;;;;1.55;0.80;;;10.90;90.50;;;;;;4992102;28;20029;-70
2023/04/15 12:00:34;;;;;;;0.77;0.77;;;10.60;78.80;;;;;;4991999;28;20109;-69
2023/04/15 12:03:25;;;;;;;0.60;0.60;;;10.60;79.50;;;;;;4990152;28;20027;-70
2023/04/15 12:06:18;;;;;;;0.60;0.60;;;10.40;93.00;;;;;;4989940;28;20030;-70
2023/04/15 12:09:05;;;;;;;0.93;0.65;;;10.40;87.20;;;;;;4992686;28;20030;-69
2023/04/15 12:11:31;;;;;;;0.70;0.70;;;;;;;;;;4992984;28;20034;-70
2023/04/15 12:14:24;;;;;;;0.70;0.70;;;10.70;81.80;;;;;;4991988;28;20042;-70
2023/04/15 12:16:53;;;;;;;1.15;1.02;;;11.00;83.20;;;;;;4991423;28;20080;-70
2023/04/15 12:19:36;;;;;;;1.27;1.17;;;11.10;92.90;;;;;;4992196;28;20507;-70
2023/04/15 12:22:14;;;;;;;0.80;0.80;;;11.10;79.30;;;;;;4992097;28;20042;-70
2023/04/15 12:24:48;;;;;;;1.02;0.93;;;11.50;79.50;;;;;;4990946;28;20120;-71
2023/04/15 12:27:15;;;;;;;0.80;0.80;;;11.80;76.00;;;;;;4992231;28;20041;-70
2023/04/15 12:29:44;;;;;;;0.85;0.85;;;;;;;;;;4992375;28;20417;-69
2023/04/15 12:32:15;;;;;;;1.25;1.10;;;12.20;80.40;;;;;;4992407;28;20033;-69
2023/04/15 12:34:51;;;;;;;1.17;1.08;;;12.00;74.10;;;;;;4991898;28;20037;-71
2023/04/15 12:37:17;;;;;;;0.75;0.75;;;12.10;85.50;;;;;;4991792;28;20053;-70
2023/04/15 12:39:44;;;;;;;0.93;0.93;;;12.20;75.00;;;;;;4992583;28;20467;-69
2023/04/15 12:42:10;;;;;;;2.40;1.08;;;11.90;78.20;;;;;;4990028;28;20038;-70
2023/04/15 12:44:37;;;;;;;2.97;0.87;;;12.10;75.60;;;;;;4990619;28;20030;-70
2023/04/15 12:47:04;;;;;;;1.02;0.93;;;11.90;84.90;;;;;;4991281;28;20038;-70
2023/04/15 12:49:31;;;;;;;1.75;0.98;;;12.10;76.80;;;;;;4989187;28;20190;-70
2023/04/15 12:52:01;;;;;;;0.70;0.70;;;12.10;90.50;;;;;;4991053;28;20026;-70
2023/04/15 12:54:27;;;;;;;1.00;1.00;;;12.10;77.10;;;;;;4992169;28;20039;-70
2023/04/15 12:56:54;;;;;;;0.70;0.70;;;11.70;76.40;;;;;;4990473;28;20103;-70
2023/04/15 12:59:20;;;;;;;0.50;0.50;;;;;;;;;;4988951;28;20027;-71
2023/04/15 13:01:47;;;;;;;0.80;0.80;;;12.00;74.10;;;;;;4991479;28;20560;-70
2023/04/15 13:04:14;;;;;;;0.70;0.70;;;12.00;76.50;;;;;;4989571;28;20041;-70
2023/04/15 13:06:40;;;;;;;0.60;0.60;;;;;;;;;;4991519;28;20038;-69
2023/04/15 13:09:06;;;;;;;0.70;0.70;;;;;;;;;;4991142;28;20041;-70
2023/04/15 13:11:32;;;;;;;0.60;0.60;;;;;;;;;;4995003;28;20164;-70
2023/04/15 13:14:05;;;;;;;0.65;0.60;;;12.50;75.00;;;;;;4989540;28;20026;-70
2023/04/15 13:16:32;;;;;;;0.70;0.70;;;12.40;71.10;;;;;;4991043;28;20157;-70
2023/04/15 13:19:02;;;;;;;1.02;0.80;;;12.20;72.80;;;;;;4991746;28;20689;-70
2023/04/15 13:21:28;;;;;;;0.85;0.80;;;12.40;89.90;;;;;;4988516;28;20041;-69
2023/04/15 13:23:54;;;;;;;1.10;0.90;;;11.80;90.40;;;;;;4991183;28;20030;-69
2023/04/15 13:26:20;;;;;;;1.45;0.70;;;;;;;;;;4991226;28;20770;-70
2023/04/15 13:28:47;;;;;;;3.03;1.05;;;11.90;73.70;;;;;;4990802;28;20030;-70
2023/04/15 13:31:12;;;;;;;0.52;0.52;;;12.10;90.40;;;;;;4991269;28;20034;-69
2023/04/15 13:33:38;;;;;;;1.30;0.70;;;;;;;;;;4991066;28;20503;-70